Time;durP1;ratioP1;P1;durP2;ratioP2;P2;SDS_P1;SDS_P2;PMS_P1;PMS_P2;Temp;Humidity;BMP_temperature;BMP_pressure;BME280_temperature;BME280_humidity;BME280_pressure;Samples;Min_cycle;Max_cycle;Signal;HPM_P1;HPM_P2
2023/08/22 00:00:31;;;;;;;12.70;6.00;;;;;;;-128.00;-1.00;-1.00;18460;299;7505498;-31
2023/08/22 00:02:58;;;;;;;6.80;6.10;;;;;;;-128.00;-1.00;-1.00;18455;342;7506203;-31
2023/08/22 00:05:23;;;;;;;9.40;6.50;;;;;;;-128.00;-1.00;-1.00;18471;310;7505118;-31
2023/08/22 00:07:49;;;;;;;6.90;6.20;;;;;;;-128.00;-1.00;-1.00;18464;286;7505968;-35
2023/08/22 00:10:15;;;;;;;13.30;6.50;;;;;;;-128.00;-1.00;-1.00;18458;302;7504860;-32
2023/08/22 00:12:41;;;;;;;6.20;5.70;;;;;;;-128.00;-1.00;-1.00;18458;342;7505157;-35
2023/08/22 00:15:12;;;;;;;6.40;5.90;;;;;;;-128.00;-1.00;-1.00;18461;297;7504366;-35
2023/08/22 00:17:37;;;;;;;9.90;5.60;;;;;;;-128.00;-1.00;-1.00;18439;299;7504888;-35
2023/08/22 00:20:06;;;;;;;6.70;6.10;;;;;;;-128.00;-1.00;-1.00;18438;297;7505821;-34
2023/08/22 00:22:31;;;;;;;11.20;7.20;;;;;;;-128.00;-1.00;-1.00;18458;297;7506253;-32
2023/08/22 00:24:58;;;;;;;8.40;7.30;;;;;;;-128.00;-1.00;-1.00;18875;298;7504667;-35
2023/08/22 00:27:24;;;;;;;11.50;7.50;;;;;;;-128.00;-1.00;-1.00;18846;297;7504331;-35
2023/08/22 00:29:50;;;;;;;7.10;6.10;;;;;;;-128.00;-1.00;-1.00;18874;350;7506312;-31
2023/08/22 00:32:16;;;;;;;6.90;6.30;;;;;;;-128.00;-1.00;-1.00;18862;288;7505168;-35
2023/08/22 00:34:42;;;;;;;8.80;6.60;;;;;;;-128.00;-1.00;-1.00;18871;297;7504478;-31
2023/08/22 00:37:09;;;;;;;7.20;6.50;;;;;;;-128.00;-1.00;-1.00;18858;297;7504649;-35
2023/08/22 01:20:12;;;;;;;16.90;13.70;;;;;;;-99.15;19.20;19970.94;19567;308;8045313;-35
2023/08/22 01:22:40;;;;;;;17.60;14.00;;;;;;;-128.00;-1.00;-1.00;18069;297;7505513;-34
2023/08/22 01:25:08;;;;;;;23.10;14.40;;;;;;;-128.00;-1.00;-1.00;18454;297;7504340;-36
2023/08/22 01:27:50;;;;;;;10.50;9.40;;;;;;;-128.00;-1.00;-1.00;18457;305;7506871;-31
2023/08/22 01:30:18;;;;;;;;;;;;;;;-128.00;-1.00;-1.00;18478;296;7505563;-35
2023/08/22 01:32:48;;;;;;;21.80;17.50;;;;;;;-128.00;-1.00;-1.00;18476;348;7504596;-35
2023/08/22 01:35:14;;;;;;;9.80;8.80;;;;;;;-128.00;-1.00;-1.00;18480;296;7504924;-36
2023/08/22 01:37:40;;;;;;;12.60;10.40;;;;;;;-128.00;-1.00;-1.00;18498;348;7504692;-36
2023/08/22 01:40:06;;;;;;;11.20;9.20;;;;;;;-128.00;-1.00;-1.00;18477;296;7505036;-36
2023/08/22 01:42:32;;;;;;;16.90;12.00;;;;;;;-128.00;-1.00;-1.00;18498;296;7506080;-36
2023/08/22 01:44:58;;;;;;;16.60;11.00;;;;;;;-128.00;-1.00;-1.00;18466;296;7504581;-36
2023/08/22 01:47:24;;;;;;;17.10;13.30;;;;;;;-128.00;-1.00;-1.00;18452;348;7504952;-35
2023/08/22 01:49:50;;;;;;;22.00;16.80;;;;;;;-128.00;-1.00;-1.00;18459;287;7504901;-31
2023/08/22 01:52:16;;;;;;;20.70;12.30;;;;;;;-128.00;-1.00;-1.00;18852;296;7505071;-35
2023/08/22 01:54:43;;;;;;;14.00;9.30;;;;;;;-128.00;-1.00;-1.00;18856;287;7504518;-34
2023/08/22 01:57:09;;;;;;;11.10;9.40;;;;;;;-128.00;-1.00;-1.00;18486;296;7504653;-36
2023/08/22 01:59:35;;;;;;;9.20;8.20;;;;;;;-128.00;-1.00;-1.00;18894;295;7506290;-31
2023/08/22 02:02:01;;;;;;;12.40;8.80;;;;;;;-128.00;-1.00;-1.00;18870;338;7504280;-35
2023/08/22 02:04:28;;;;;;;12.80;9.20;;;;;;;-128.00;-1.00;-1.00;18865;348;7505820;-32
2023/08/22 02:06:54;;;;;;;17.30;10.30;;;;;;;-128.00;-1.00;-1.00;18872;296;7504747;-31
2023/08/22 02:09:20;;;;;;;8.60;7.50;;;;;;;-128.00;-1.00;-1.00;18886;304;7504774;-32
2023/08/22 02:11:46;;;;;;;13.30;8.60;;;;;;;-128.00;-1.00;-1.00;18860;296;7504213;-32
2023/08/22 02:14:12;;;;;;;9.80;8.20;;;;;;;-128.00;-1.00;-1.00;18893;287;7504662;-35
2023/08/22 02:16:38;;;;;;;8.50;7.50;;;;;;;-128.00;-1.00;-1.00;18470;296;7504807;-32
2023/08/22 02:19:05;;;;;;;7.00;6.30;;;;;;;-128.00;-1.00;-1.00;18468;284;7506722;-36
2023/08/22 02:21:31;;;;;;;9.80;8.30;;;;;;;-128.00;-1.00;-1.00;18483;303;7504937;-33
2023/08/22 02:23:57;;;;;;;14.50;10.10;;;;;;;-128.00;-1.00;-1.00;18509;295;7505282;-32
2023/08/22 02:26:22;;;;;;;11.00;7.40;;;;;;;-128.00;-1.00;-1.00;18460;323;7506122;-36
2023/08/22 02:28:48;;;;;;;18.50;11.30;;;;;;;-128.00;-1.00;-1.00;18481;289;7506212;-33
2023/08/22 02:31:14;;;;;;;9.80;7.90;;;;;;;-128.00;-1.00;-1.00;18478;296;7504150;-33
2023/08/22 02:33:40;;;;;;;8.40;7.60;;;;;;;-128.00;-1.00;-1.00;18488;296;7504212;-36
2023/08/22 02:36:06;;;;;;;10.20;9.10;;;;;;;-128.00;-1.00;-1.00;18491;295;7506285;-36
2023/08/22 02:38:32;;;;;;;7.10;6.50;;;;;;;-128.00;-1.00;-1.00;18452;285;7506182;-33
2023/08/22 02:40:57;;;;;;;11.00;8.10;;;;;;;-128.00;-1.00;-1.00;18469;284;7504638;-35
2023/08/22 02:43:23;;;;;;;17.70;8.90;;;;;;;-128.00;-1.00;-1.00;18483;295;7505124;-35
2023/08/22 02:45:49;;;;;;;14.00;11.50;;;;;;;-128.00;-1.00;-1.00;18457;295;7505079;-35
2023/08/22 02:48:14;;;;;;;7.40;5.40;;;;;;;-128.00;-1.00;-1.00;18480;295;7505994;-36
2023/08/22 02:50:40;;;;;;;7.50;6.60;;;;;;;-128.00;-1.00;-1.00;18496;295;7504449;-33
2023/08/22 02:53:06;;;;;;;12.30;9.60;;;;;;;-128.00;-1.00;-1.00;18462;295;7505085;-36
2023/08/22 02:55:32;;;;;;;14.90;13.40;;;;;;;-128.00;-1.00;-1.00;18469;295;7504139;-36
2023/08/22 02:57:58;;;;;;;11.20;9.50;;;;;;;-128.00;-1.00;-1.00;18469;295;7504270;-32
2023/08/22 03:00:23;;;;;;;7.20;6.00;;;;;;;-128.00;-1.00;-1.00;18477;295;7504765;-32
2023/08/22 03:02:49;;;;;;;23.60;7.40;;;;;;;-128.00;-1.00;-1.00;18468;348;7504491;-36
2023/08/22 03:05:15;;;;;;;13.80;9.30;;;;;;;-128.00;-1.00;-1.00;18860;295;7505869;-32
2023/08/22 03:07:41;;;;;;;10.20;8.50;;;;;;;-128.00;-1.00;-1.00;18873;296;7505113;-35
2023/08/22 03:10:08;;;;;;;16.30;11.90;;;;;;;-128.00;-1.00;-1.00;18853;348;7504354;-35
2023/08/22 03:12:34;;;;;;;16.40;12.00;;;;;;;-128.00;-1.00;-1.00;18477;288;7504739;-32
2023/08/22 03:15:01;;;;;;;10.40;9.30;;;;;;;-128.00;-1.00;-1.00;18475;295;7505106;-33
2023/08/22 03:17:27;;;;;;;11.00;8.70;;;;;;;-128.00;-1.00;-1.00;18485;295;7506116;-32
2023/08/22 03:19:54;;;;;;;8.70;7.40;;;;;;;-128.00;-1.00;-1.00;18485;295;7504799;-35
2023/08/22 03:22:19;;;;;;;9.70;8.70;;;;;;;-128.00;-1.00;-1.00;18469;295;7506039;-35
2023/08/22 03:24:45;;;;;;;11.10;8.70;;;;;;;-128.00;-1.00;-1.00;18890;343;7504977;-35
2023/08/22 03:27:11;;;;;;;11.50;10.40;;;;;;;-128.00;-1.00;-1.00;18893;287;7504702;-32
2023/08/22 03:29:38;;;;;;;10.80;8.70;;;;;;;-128.00;-1.00;-1.00;18900;295;7504887;-34
2023/08/22 03:32:04;;;;;;;7.40;6.70;;;;;;;-128.00;-1.00;-1.00;18867;295;7504430;-32
2023/08/22 03:34:30;;;;;;;11.00;8.40;;;;;;;-128.00;-1.00;-1.00;18901;287;7504438;-36
2023/08/22 03:36:56;;;;;;;8.10;7.30;;;;;;;-128.00;-1.00;-1.00;18890;296;7505798;-35
2023/08/22 03:39:23;;;;;;;6.50;5.90;;;;;;;-128.00;-1.00;-1.00;18877;287;7504599;-35
2023/08/22 03:41:49;;;;;;;8.20;7.40;;;;;;;-128.00;-1.00;-1.00;18866;295;7504444;-34
2023/08/22 03:44:15;;;;;;;9.50;7.80;;;;;;;-128.00;-1.00;-1.00;18858;295;7504748;-36
2023/08/22 03:46:42;;;;;;;13.70;11.70;;;;;;;-128.00;-1.00;-1.00;18902;291;7504738;-32
2023/08/22 03:49:08;;;;;;;15.00;11.60;;;;;;;-128.00;-1.00;-1.00;18860;295;7504399;-33
2023/08/22 03:51:34;;;;;;;34.10;18.80;;;;;;;-128.00;-1.00;-1.00;18873;298;7504047;-32
2023/08/22 03:54:00;;;;;;;33.40;24.70;;;;;;;-128.00;-1.00;-1.00;18866;347;7504970;-32
2023/08/22 03:56:27;;;;;;;18.40;15.60;;;;;;;-128.00;-1.00;-1.00;18868;295;7504530;-33
2023/08/22 03:58:53;;;;;;;31.60;22.80;;;;;;;-128.00;-1.00;-1.00;18882;295;7504554;-32
2023/08/22 04:01:19;;;;;;;14.40;12.00;;;;;;;-128.00;-1.00;-1.00;18891;295;7504842;-35
2023/08/22 04:03:45;;;;;;;31.60;22.50;;;;;;;-128.00;-1.00;-1.00;18883;295;7504645;-33
2023/08/22 04:06:11;;;;;;;33.30;22.50;;;;;;;-128.00;-1.00;-1.00;18887;295;7504272;-31
2023/08/22 04:08:38;;;;;;;34.30;19.60;;;;;;;-128.00;-1.00;-1.00;18892;294;7506067;-33
2023/08/22 04:11:04;;;;;;;35.00;23.00;;;;;;;-128.00;-1.00;-1.00;18885;347;7505276;-33
2023/08/22 04:13:30;;;;;;;21.20;16.30;;;;;;;-128.00;-1.00;-1.00;18871;287;7505055;-32
2023/08/22 04:15:57;;;;;;;23.30;18.80;;;;;;;-128.00;-1.00;-1.00;18878;296;7504793;-32
2023/08/22 04:18:23;;;;;;;17.30;12.80;;;;;;;-128.00;-1.00;-1.00;18889;296;7505131;-36
2023/08/22 04:20:49;;;;;;;14.60;11.40;;;;;;;-128.00;-1.00;-1.00;18452;296;7504801;-31
2023/08/22 04:23:15;;;;;;;12.90;11.30;;;;;;;-128.00;-1.00;-1.00;18868;287;7504536;-36
2023/08/22 04:25:41;;;;;;;10.80;9.70;;;;;;;-128.00;-1.00;-1.00;18913;347;7505039;-32
2023/08/22 04:28:08;;;;;;;10.10;8.90;;;;;;;-128.00;-1.00;-1.00;18882;296;7504589;-33
2023/08/22 04:30:34;;;;;;;14.70;13.10;;;;;;;-128.00;-1.00;-1.00;18878;295;7504874;-38
2023/08/22 04:33:00;;;;;;;19.20;13.60;;;;;;;-128.00;-1.00;-1.00;18890;295;7506057;-36
2023/08/22 04:35:26;;;;;;;13.40;12.10;;;;;;;-128.00;-1.00;-1.00;18872;319;7504706;-33
2023/08/22 04:37:52;;;;;;;16.30;14.00;;;;;;;-128.00;-1.00;-1.00;18874;336;7504848;-32
2023/08/22 04:40:18;;;;;;;15.40;13.80;;;;;;;-128.00;-1.00;-1.00;18880;295;7504620;-32
2023/08/22 04:42:44;;;;;;;14.40;12.50;;;;;;;-128.00;-1.00;-1.00;18895;287;7504531;-36
2023/08/22 04:45:11;;;;;;;19.50;14.00;;;;;;;-128.00;-1.00;-1.00;18871;296;7504475;-34
2023/08/22 04:47:37;;;;;;;14.40;12.30;;;;;;;-128.00;-1.00;-1.00;18874;315;7504598;-32
2023/08/22 04:50:05;;;;;;;15.10;11.80;;;;;;;-128.00;-1.00;-1.00;18896;296;7505435;-32
2023/08/22 04:52:30;;;;;;;13.70;12.10;;;;;;;-128.00;-1.00;-1.00;18463;307;7506200;-32
2023/08/22 04:54:56;;;;;;;14.70;11.00;;;;;;;-128.00;-1.00;-1.00;18862;296;7504628;-32
2023/08/22 04:57:26;;;;;;;16.90;10.10;;;;;;;-128.00;-1.00;-1.00;18891;295;7505270;-36
2023/08/22 04:59:53;;;;;;;8.00;6.90;;;;;;;-128.00;-1.00;-1.00;18486;336;7504331;-38
2023/08/22 05:02:19;;;;;;;10.90;9.10;;;;;;;-128.00;-1.00;-1.00;18478;295;7504740;-36
2023/08/22 05:04:44;;;;;;;9.20;8.30;;;;;;;-128.00;-1.00;-1.00;18457;295;7506189;-32
2023/08/22 05:07:10;;;;;;;9.10;7.80;;;;;;;-128.00;-1.00;-1.00;18469;319;7504460;-36
2023/08/22 05:09:36;;;;;;;10.80;9.30;;;;;;;-128.00;-1.00;-1.00;18861;296;7504522;-35
2023/08/22 05:12:03;;;;;;;12.20;11.00;;;;;;;-128.00;-1.00;-1.00;18878;347;7504229;-36
2023/08/22 05:14:30;;;;;;;15.80;8.70;;;;;;;-128.00;-1.00;-1.00;18485;296;7506941;-36
2023/08/22 05:16:55;;;;;;;8.80;7.60;;;;;;;-128.00;-1.00;-1.00;18440;295;7506231;-33
2023/08/22 05:19:21;;;;;;;13.20;9.60;;;;;;;-128.00;-1.00;-1.00;18861;296;7504995;-33
2023/08/22 05:21:47;;;;;;;10.70;8.70;;;;;;;-128.00;-1.00;-1.00;18874;296;7504597;-33
2023/08/22 05:24:14;;;;;;;16.10;11.30;;;;;;;-128.00;-1.00;-1.00;18866;295;7504536;-33
2023/08/22 05:26:40;;;;;;;17.20;12.70;;;;;;;-128.00;-1.00;-1.00;18890;295;7504527;-33
2023/08/22 05:29:06;;;;;;;19.20;14.30;;;;;;;-128.00;-1.00;-1.00;18870;295;7504944;-33
2023/08/22 05:31:33;;;;;;;17.50;14.10;;;;;;;-128.00;-1.00;-1.00;18870;295;7504402;-36
2023/08/22 05:33:59;;;;;;;17.10;12.60;;;;;;;-128.00;-1.00;-1.00;18882;295;7504642;-33
2023/08/22 05:36:25;;;;;;;14.70;11.20;;;;;;;-128.00;-1.00;-1.00;18889;347;7504388;-33
2023/08/22 05:38:51;;;;;;;17.20;10.60;;;;;;;-128.00;-1.00;-1.00;18882;299;7504979;-33
2023/08/22 05:41:17;;;;;;;16.60;10.90;;;;;;;-128.00;-1.00;-1.00;18908;287;7505100;-33
2023/08/22 05:43:44;;;;;;;9.90;8.80;;;;;;;-128.00;-1.00;-1.00;18875;295;7504822;-36
2023/08/22 05:46:10;;;;;;;15.60;9.40;;;;;;;-128.00;-1.00;-1.00;18881;295;7504940;-35
2023/08/22 05:48:36;;;;;;;17.40;8.20;;;;;;;-128.00;-1.00;-1.00;18477;336;7504585;-33
2023/08/22 05:51:02;;;;;;;10.60;9.40;;;;;;;-128.00;-1.00;-1.00;18477;307;7504639;-33
2023/08/22 05:53:28;;;;;;;12.90;8.30;;;;;;;-128.00;-1.00;-1.00;18503;295;7504159;-37
2023/08/22 05:55:55;;;;;;;12.50;9.00;;;;;;;-128.00;-1.00;-1.00;18475;295;7504899;-37
2023/08/22 05:58:20;;;;;;;9.00;8.10;;;;;;;-128.00;-1.00;-1.00;18501;295;7505449;-37
2023/08/22 06:00:46;;;;;;;12.30;8.60;;;;;;;-128.00;-1.00;-1.00;18892;343;7505035;-34
2023/08/22 06:03:13;;;;;;;12.50;9.50;;;;;;;-128.00;-1.00;-1.00;18846;295;7505317;-33
2023/08/22 06:05:40;;;;;;;9.50;8.60;;;;;;;-128.00;-1.00;-1.00;18912;287;7505238;-37
2023/08/22 06:08:05;;;;;;;16.70;10.90;;;;;;;-128.00;-1.00;-1.00;18482;295;7504460;-33
2023/08/22 06:10:31;;;;;;;8.80;8.00;;;;;;;-128.00;-1.00;-1.00;18457;295;7505366;-34
2023/08/22 06:12:57;;;;;;;13.50;8.20;;;;;;;-128.00;-1.00;-1.00;18469;283;7506439;-34
2023/08/22 06:15:23;;;;;;;8.50;7.60;;;;;;;-128.00;-1.00;-1.00;18484;296;7506306;-36
2023/08/22 06:17:48;;;;;;;11.20;6.80;;;;;;;-128.00;-1.00;-1.00;18459;296;7504515;-36
2023/08/22 06:20:15;;;;;;;8.00;6.80;;;;;;;-128.00;-1.00;-1.00;18457;347;7506247;-36
2023/08/22 06:22:41;;;;;;;15.30;6.70;;;;;;;-128.00;-1.00;-1.00;18448;295;7505124;-32
2023/08/22 06:25:07;;;;;;;8.60;6.60;;;;;;;-128.00;-1.00;-1.00;18864;295;7505164;-36
2023/08/22 06:27:33;;;;;;;7.20;5.60;;;;;;;-128.00;-1.00;-1.00;18494;295;7505171;-36
2023/08/22 06:30:02;;;;;;;11.60;7.90;;;;;;;-128.00;-1.00;-1.00;18474;287;7504885;-36
2023/08/22 06:32:28;;;;;;;8.90;6.60;;;;;;;-128.00;-1.00;-1.00;18501;319;7505815;-35
2023/08/22 06:34:58;;;;;;;6.80;6.10;;;;;;;-128.00;-1.00;-1.00;18476;339;7504566;-36
2023/08/22 06:37:23;;;;;;;6.20;5.60;;;;;;;-128.00;-1.00;-1.00;18500;295;7504570;-32
2023/08/22 06:39:49;;;;;;;7.30;6.60;;;;;;;-128.00;-1.00;-1.00;18455;295;7504878;-40
2023/08/22 06:42:15;;;;;;;19.90;6.60;;;;;;;-128.00;-1.00;-1.00;18485;287;7505760;-40
2023/08/22 06:44:41;;;;;;;11.40;8.60;;;;;;;-128.00;-1.00;-1.00;18474;297;7506062;-37
2023/08/22 06:47:09;;;;;;;12.70;7.70;;;;;;;-128.00;-1.00;-1.00;18882;296;7505156;-35
2023/08/22 06:49:34;;;;;;;6.60;5.80;;;;;;;-128.00;-1.00;-1.00;18487;341;7504264;-36
2023/08/22 06:52:00;;;;;;;10.60;6.80;;;;;;;-128.00;-1.00;-1.00;18903;287;7505292;-32
2023/08/22 06:54:27;;;;;;;7.50;6.50;;;;;;;-128.00;-1.00;-1.00;18877;295;7504554;-32
2023/08/22 06:56:53;;;;;;;7.50;5.40;;;;;;;-128.00;-1.00;-1.00;18892;303;7504467;-32
2023/08/22 06:59:19;;;;;;;6.40;5.80;;;;;;;-128.00;-1.00;-1.00;18883;295;7505319;-36
2023/08/22 07:01:46;;;;;;;13.10;7.30;;;;;;;-128.00;-1.00;-1.00;18858;335;7504473;-33
2023/08/22 07:04:12;;;;;;;24.40;7.60;;;;;;;-128.00;-1.00;-1.00;18911;347;7504537;-32
2023/08/22 07:06:38;;;;;;;6.70;4.80;;;;;;;-128.00;-1.00;-1.00;18876;347;7504349;-33
2023/08/22 07:09:04;;;;;;;7.00;5.60;;;;;;;-128.00;-1.00;-1.00;18899;296;7504609;-36
2023/08/22 07:11:30;;;;;;;10.50;6.30;;;;;;;-128.00;-1.00;-1.00;18864;338;7505085;-33
2023/08/22 07:13:57;;;;;;;12.60;5.30;;;;;;;-128.00;-1.00;-1.00;18877;347;7504345;-32
2023/08/22 07:16:23;;;;;;;7.20;5.70;;;;;;;-128.00;-1.00;-1.00;18904;295;7504385;-36
2023/08/22 07:18:49;;;;;;;7.40;5.00;;;;;;;-128.00;-1.00;-1.00;18892;284;7504765;-36
2023/08/22 07:21:15;;;;;;;5.10;4.50;;;;;;;-128.00;-1.00;-1.00;18905;296;7504522;-36
2023/08/22 07:23:42;;;;;;;5.60;4.60;;;;;;;-128.00;-1.00;-1.00;18853;283;7504455;-37
2023/08/22 07:26:08;;;;;;;6.20;5.00;;;;;;;-128.00;-1.00;-1.00;18870;295;7506396;-36
2023/08/22 07:28:34;;;;;;;4.50;4.00;;;;;;;-128.00;-1.00;-1.00;18874;295;7504698;-33
2023/08/22 07:31:03;;;;;;;3.30;2.70;;;;;;;-128.00;-1.00;-1.00;18910;295;7505757;-33
2023/08/22 07:33:29;;;;;;;8.80;2.80;;;;;;;-128.00;-1.00;-1.00;18470;295;7505087;-33
2023/08/22 07:35:55;;;;;;;3.60;2.40;;;;;;;-128.00;-1.00;-1.00;18466;295;7505816;-36
2023/08/22 07:38:21;;;;;;;2.90;2.50;;;;;;;-128.00;-1.00;-1.00;18478;296;7506220;-37
2023/08/22 07:40:46;;;;;;;3.90;3.20;;;;;;;-128.00;-1.00;-1.00;18486;287;7504989;-36
2023/08/22 07:43:12;;;;;;;4.00;2.70;;;;;;;-128.00;-1.00;-1.00;18494;295;7505832;-38
2023/08/22 07:45:38;;;;;;;3.40;3.10;;;;;;;-128.00;-1.00;-1.00;18494;287;7504965;-36
2023/08/22 07:48:05;;;;;;;5.80;2.70;;;;;;;-128.00;-1.00;-1.00;18898;295;7505553;-36
2023/08/22 07:50:30;;;;;;;4.10;1.90;;;;;;;-128.00;-1.00;-1.00;18473;296;7505229;-36
2023/08/22 07:52:57;;;;;;;2.40;2.00;;;;;;;-128.00;-1.00;-1.00;18472;339;7505928;-36
2023/08/22 07:55:23;;;;;;;5.70;3.30;;;;;;;-128.00;-1.00;-1.00;18481;287;7506397;-33
2023/08/22 07:57:50;;;;;;;3.60;2.50;;;;;;;-128.00;-1.00;-1.00;18467;287;7505218;-36
2023/08/22 08:00:17;;;;;;;3.70;2.50;;;;;;;-128.00;-1.00;-1.00;18450;347;7505982;-32
2023/08/22 08:02:42;;;;;;;3.40;2.70;;;;;;;-128.00;-1.00;-1.00;18478;295;7504626;-36
2023/08/22 08:05:08;;;;;;;4.10;2.30;;;;;;;-128.00;-1.00;-1.00;18488;295;7506330;-32
2023/08/22 08:07:34;;;;;;;3.20;2.90;;;;;;;-128.00;-1.00;-1.00;18491;296;7505019;-32
2023/08/22 08:10:01;;;;;;;2.50;2.00;;;;;;;-128.00;-1.00;-1.00;18472;295;7505742;-35
2023/08/22 08:12:27;;;;;;;2.70;1.50;;;;;;;-128.00;-1.00;-1.00;18525;347;7506231;-32
2023/08/22 08:14:52;;;;;;;3.50;2.90;;;;;;;-128.00;-1.00;-1.00;18454;306;7506266;-35
2023/08/22 08:17:19;;;;;;;4.40;2.10;;;;;;;-128.00;-1.00;-1.00;18502;295;7505013;-33
2023/08/22 08:19:48;;;;;;;3.60;2.30;;;;;;;-128.00;-1.00;-1.00;18473;295;7506077;-32
2023/08/22 08:22:13;;;;;;;3.50;2.60;;;;;;;-128.00;-1.00;-1.00;18485;295;7506317;-36
2023/08/22 08:24:40;;;;;;;7.60;3.40;;;;;;;-128.00;-1.00;-1.00;18457;311;7504195;-35
2023/08/22 08:27:06;;;;;;;7.40;2.40;;;;;;;-128.00;-1.00;-1.00;18883;287;7504478;-36
2023/08/22 08:29:38;;;;;;;4.40;2.40;;;;;;;-128.00;-1.00;-1.00;18466;296;7505034;-33
2023/08/22 08:32:04;;;;;;;3.40;2.30;;;;;;;-128.00;-1.00;-1.00;18489;295;7504550;-38
2023/08/22 08:34:30;;;;;;;12.70;2.50;;;;;;;-128.00;-1.00;-1.00;18462;295;7504472;-37
2023/08/22 08:36:56;;;;;;;3.70;2.30;;;;;;;-128.00;-1.00;-1.00;18512;287;7506479;-40
2023/08/22 08:39:21;;;;;;;1.90;1.80;;;;;;;-128.00;-1.00;-1.00;18465;336;7504365;-36
2023/08/22 08:41:54;;;;;;;9.20;2.60;;;;;;;-128.00;-1.00;-1.00;18874;336;7504534;-38
2023/08/22 08:44:20;;;;;;;2.60;2.40;;;;;;;-128.00;-1.00;-1.00;18503;287;7504966;-38
2023/08/22 08:46:46;;;;;;;10.30;2.60;;;;;;;-128.00;-1.00;-1.00;18472;295;7506820;-34
2023/08/22 08:49:11;;;;;;;2.80;2.50;;;;;;;-128.00;-1.00;-1.00;18462;295;7504376;-32
2023/08/22 08:51:37;;;;;;;4.00;2.20;;;;;;;-128.00;-1.00;-1.00;18475;295;7504898;-36
2023/08/22 08:54:04;;;;;;;3.80;2.30;;;;;;;-128.00;-1.00;-1.00;18487;347;7505997;-32
2023/08/22 08:56:30;;;;;;;4.20;2.60;;;;;;;-128.00;-1.00;-1.00;18468;334;7504676;-32
2023/08/22 08:58:56;;;;;;;3.90;2.40;;;;;;;-128.00;-1.00;-1.00;18891;296;7505677;-36
2023/08/22 09:01:23;;;;;;;4.40;2.10;;;;;;;-128.00;-1.00;-1.00;18887;347;7505272;-32
2023/08/22 09:03:49;;;;;;;4.20;1.90;;;;;;;-128.00;-1.00;-1.00;18478;296;7504339;-32
2023/08/22 09:06:14;;;;;;;2.30;2.00;;;;;;;-128.00;-1.00;-1.00;18476;295;7507632;-35
2023/08/22 09:08:41;;;;;;;12.20;2.60;;;;;;;-128.00;-1.00;-1.00;18466;295;7506213;-36
2023/08/22 09:11:06;;;;;;;3.10;2.40;;;;;;;-128.00;-1.00;-1.00;18479;295;7504371;-36
2023/08/22 09:13:32;;;;;;;2.50;2.10;;;;;;;-128.00;-1.00;-1.00;18463;296;7507671;-36
2023/08/22 09:15:59;;;;;;;2.50;1.80;;;;;;;-128.00;-1.00;-1.00;18489;296;7505972;-36
2023/08/22 09:18:25;;;;;;;2.10;1.80;;;;;;;-128.00;-1.00;-1.00;18465;295;7504768;-32
2023/08/22 09:20:51;;;;;;;5.20;2.30;;;;;;;-128.00;-1.00;-1.00;18483;296;7504838;-36
2023/08/22 09:23:29;;;;;;;6.50;3.00;;;;;;;-128.00;-1.00;-1.00;17998;287;7505783;-36
2023/08/22 09:25:55;;;;;;;2.00;1.70;;;;;;;-128.00;-1.00;-1.00;18497;296;7505705;-36
2023/08/22 09:28:21;;;;;;;5.20;2.90;;;;;;;-128.00;-1.00;-1.00;18455;295;7506062;-36
2023/08/22 09:30:53;;;;;;;3.80;2.50;;;;;;;-128.00;-1.00;-1.00;18485;295;7505044;-36
2023/08/22 09:33:18;;;;;;;2.20;2.00;;;;;;;-128.00;-1.00;-1.00;18443;297;7504329;-33
2023/08/22 09:35:44;;;;;;;2.50;2.20;;;;;;;-128.00;-1.00;-1.00;18461;295;7504539;-32
2023/08/22 09:38:10;;;;;;;1.90;1.80;;;;;;;-128.00;-1.00;-1.00;18488;295;7504454;-36
2023/08/22 09:40:49;;;;;;;4.70;3.00;;;;;;;-128.00;-1.00;-1.00;18496;287;7506461;-34
2023/08/22 09:43:14;;;;;;;2.30;2.10;;;;;;;-128.00;-1.00;-1.00;18480;287;7504176;-36
2023/08/22 09:45:42;;;;;;;2.50;2.10;;;;;;;-128.00;-1.00;-1.00;18477;295;7505266;-34
2023/08/22 09:48:08;;;;;;;3.20;2.40;;;;;;;-128.00;-1.00;-1.00;18453;307;7504787;-36
2023/08/22 09:50:35;;;;;;;2.50;1.40;;;;;;;-128.00;-1.00;-1.00;20293;322;7504121;-32
2023/08/22 09:53:01;;;;;;;2.10;1.90;;;;;;;-128.00;-1.00;-1.00;18510;295;7504643;-33
2023/08/22 09:55:27;;;;;;;2.60;2.20;;;;;;;-128.00;-1.00;-1.00;18485;295;7505751;-33
2023/08/22 09:57:52;;;;;;;3.90;2.30;;;;;;;-128.00;-1.00;-1.00;18485;335;7504719;-35
2023/08/22 10:00:18;;;;;;;3.10;2.40;;;;;;;-128.00;-1.00;-1.00;18476;296;7504153;-37
2023/08/22 10:02:44;;;;;;;2.10;1.60;;;;;;;-128.00;-1.00;-1.00;18472;295;7504415;-36
2023/08/22 10:05:11;;;;;;;2.30;1.90;;;;;;;-128.00;-1.00;-1.00;18471;287;7505822;-36
2023/08/22 10:07:36;;;;;;;2.30;2.10;;;;;;;-128.00;-1.00;-1.00;18497;295;7506862;-36
2023/08/22 10:10:04;;;;;;;2.30;2.10;;;;;;;-128.00;-1.00;-1.00;18870;295;7504562;-36
2023/08/22 10:12:30;;;;;;;3.40;1.70;;;;;;;-128.00;-1.00;-1.00;18474;287;7504438;-33
2023/08/22 10:14:56;;;;;;;2.00;1.80;;;;;;;-128.00;-1.00;-1.00;18454;295;7505775;-33
2023/08/22 10:17:26;;;;;;;2.10;1.80;;;;;;;-128.00;-1.00;-1.00;18467;287;7504949;-36
2023/08/22 10:19:51;;;;;;;2.40;1.70;;;;;;;-128.00;-1.00;-1.00;18467;287;7505094;-32
2023/08/22 10:22:17;;;;;;;1.60;1.50;;;;;;;-128.00;-1.00;-1.00;18465;295;7506186;-32
2023/08/22 10:24:46;;;;;;;2.40;2.20;;;;;;;-128.00;-1.00;-1.00;18858;295;7504721;-35
2023/08/22 10:27:13;;;;;;;2.90;1.80;;;;;;;-128.00;-1.00;-1.00;18488;295;7506128;-32
2023/08/22 10:29:47;;;;;;;1.40;1.30;;;;;;;-128.00;-1.00;-1.00;18463;295;7506297;-35
2023/08/22 10:32:19;;;;;;;2.90;1.60;;;;;;;-128.00;-1.00;-1.00;18490;295;7504974;-32
2023/08/22 10:35:00;;;;;;;1.80;1.70;;;;;;;-128.00;-1.00;-1.00;18460;296;7504873;-36
2023/08/22 10:37:27;;;;;;;1.00;0.80;;;;;;;-128.00;-1.00;-1.00;18474;295;7506270;-32
2023/08/22 10:39:57;;;;;;;2.00;1.60;;;;;;;-128.00;-1.00;-1.00;18490;298;7506036;-32
2023/08/22 10:42:23;;;;;;;2.90;1.10;;;;;;;-128.00;-1.00;-1.00;18479;307;7504751;-36
2023/08/22 10:44:53;;;;;;;2.80;1.30;;;;;;;-128.00;-1.00;-1.00;18468;295;7506195;-33
2023/08/22 10:47:19;;;;;;;1.70;1.00;;;;;;;-128.00;-1.00;-1.00;18466;295;7504314;-32
2023/08/22 10:49:49;;;;;;;14.20;2.10;;;;;;;-128.00;-1.00;-1.00;18456;347;7504410;-36
2023/08/22 10:52:16;;;;;;;1.90;1.20;;;;;;;-128.00;-1.00;-1.00;18464;295;7504519;-32
2023/08/22 10:55:00;;;;;;;1.60;1.40;;;;;;;-128.00;-1.00;-1.00;18476;335;7506094;-42
2023/08/22 10:57:29;;;;;;;2.80;1.10;;;;;;;-128.00;-1.00;-1.00;18465;296;7504540;-37
2023/08/22 11:00:12;;;;;;;1.10;1.00;;;;;;;-128.00;-1.00;-1.00;18483;296;7504954;-33
2023/08/22 11:02:39;;;;;;;1.30;1.20;;;;;;;-128.00;-1.00;-1.00;18495;287;7505120;-32
2023/08/22 11:05:10;;;;;;;3.90;1.30;;;;;;;-128.00;-1.00;-1.00;18472;347;7506297;-35
2023/08/22 11:07:36;;;;;;;1.40;1.00;;;;;;;-128.00;-1.00;-1.00;18489;283;7504837;-32
2023/08/22 11:10:02;;;;;;;2.20;2.00;;;;;;;-128.00;-1.00;-1.00;18461;287;7506669;-36
2023/08/22 11:12:29;;;;;;;1.70;1.40;;;;;;;-128.00;-1.00;-1.00;18877;287;7504616;-36
2023/08/22 11:14:57;;;;;;;1.70;1.60;;;;;;;-128.00;-1.00;-1.00;18882;295;7504305;-36
2023/08/22 11:17:23;;;;;;;7.80;1.40;;;;;;;-128.00;-1.00;-1.00;18473;287;7505164;-36
2023/08/22 11:19:53;;;;;;;1.60;1.50;;;;;;;-128.00;-1.00;-1.00;21684;283;7505173;-36
2023/08/22 11:22:18;;;;;;;2.60;1.20;;;;;;;-128.00;-1.00;-1.00;18503;287;7504635;-36
2023/08/22 11:24:45;;;;;;;1.60;1.20;;;;;;;-128.00;-1.00;-1.00;18494;295;7504458;-36
2023/08/22 11:27:14;;;;;;;2.40;1.50;;;;;;;-128.00;-1.00;-1.00;18463;295;7504949;-31
2023/08/22 11:29:47;;;;;;;1.60;1.50;;;;;;;-128.00;-1.00;-1.00;23780;295;7504552;-35
2023/08/22 11:32:29;;;;;;;3.20;1.40;;;;;;;-128.00;-1.00;-1.00;34561;295;7503890;-31
2023/08/22 11:35:03;;;;;;;2.00;1.20;;;;;;;-128.00;-1.00;-1.00;18485;343;7504328;-35
2023/08/22 11:37:36;;;;;;;1.50;1.40;;;;;;;-128.00;-1.00;-1.00;18452;295;7504895;-32
2023/08/22 11:40:04;;;;;;;1.90;1.30;;;;;;;-128.00;-1.00;-1.00;18493;296;7506070;-35
2023/08/22 11:42:32;;;;;;;1.20;1.10;;;;;;;-128.00;-1.00;-1.00;18514;295;7504714;-32
2023/08/22 11:45:06;;;;;;;2.10;1.20;;;;;;;-128.00;-1.00;-1.00;18487;295;7505799;-36
2023/08/22 11:47:39;;;;;;;2.00;1.90;;;;;;;-128.00;-1.00;-1.00;18502;295;7504595;-36
2023/08/22 11:50:05;;;;;;;1.40;1.30;;;;;;;-128.00;-1.00;-1.00;18473;338;7506010;-33
2023/08/22 11:52:31;;;;;;;2.50;1.60;;;;;;;-128.00;-1.00;-1.00;18463;295;7506056;-36
2023/08/22 11:55:05;;;;;;;1.90;1.80;;;;;;;-128.00;-1.00;-1.00;18469;295;7504521;-36
2023/08/22 11:57:32;;;;;;;1.80;1.30;;;;;;;-128.00;-1.00;-1.00;18470;315;7506451;-36
2023/08/22 12:00:04;;;;;;;1.80;0.70;;;;;;;-128.00;-1.00;-1.00;18439;319;7506189;-36
2023/08/22 12:02:29;;;;;;;2.10;1.40;;;;;;;-128.00;-1.00;-1.00;18502;295;7504401;-33
2023/08/22 12:04:55;;;;;;;10.70;1.60;;;;;;;-128.00;-1.00;-1.00;18870;295;7504755;-36
2023/08/22 12:07:22;;;;;;;2.10;1.30;;;;;;;-128.00;-1.00;-1.00;18853;313;7505100;-34